Time;durP1;ratioP1;P1;durP2;ratioP2;P2;SDS_P1;SDS_P2;PMS_P1;PMS_P2;Temp;Humidity;BMP_temperature;BMP_pressure;BME280_temperature;BME280_humidity;BME280_pressure;Samples;Min_cycle;Max_cycle;Signal;HPM_P1;HPM_P2
2023/04/02 00:01:25;0.00;0.00;0.62;0.00;0.00;0.62;1.57;0.80;;;23.90;25.00;;;;;;2263805;61;20395;-62
2023/04/02 00:04:25;0.00;0.00;0.62;0.00;0.00;0.62;1.40;0.80;;;23.90;24.90;;;;;;2263630;61;20410;-61
2023/04/02 00:07:30;0.00;0.00;0.62;0.00;0.00;0.62;2.27;1.10;;;23.90;24.90;;;;;;2264406;61;20408;-62
2023/04/02 00:10:30;0.00;0.00;0.62;0.00;0.00;0.62;2.30;0.93;;;23.90;24.90;;;;;;2263690;61;20399;-62
2023/04/02 00:13:24;0.00;0.00;0.62;0.00;0.00;0.62;1.63;0.77;;;23.80;24.90;;;;;;2264370;61;20772;-63
2023/04/02 00:16:22;0.00;0.00;0.62;0.00;0.00;0.62;1.40;0.90;;;23.90;24.90;;;;;;2264087;61;20375;-61
2023/04/02 00:19:15;0.00;0.00;0.62;0.00;0.00;0.62;1.67;0.90;;;23.80;24.90;;;;;;2263564;61;20396;-63
2023/04/02 00:22:03;0.00;0.00;0.62;0.00;0.00;0.62;1.33;0.80;;;23.80;24.90;;;;;;2264476;61;20372;-63
2023/04/02 00:24:54;0.00;0.00;0.62;0.00;0.00;0.62;1.20;0.67;;;23.80;24.90;;;;;;2264410;61;20428;-63
2023/04/02 00:27:40;0.00;0.00;0.62;0.00;0.00;0.62;1.40;0.70;;;23.80;24.90;;;;;;2263842;61;20399;-65
2023/04/02 00:30:25;0.00;0.00;0.62;0.00;0.00;0.62;1.60;0.80;;;23.80;24.90;;;;;;2263391;61;20359;-68
2023/04/02 00:33:15;0.00;0.00;0.62;0.00;0.00;0.62;1.53;0.80;;;23.80;24.80;;;;;;2263542;61;20909;-62
2023/04/02 00:36:06;0.00;0.00;0.62;0.00;0.00;0.62;1.97;1.00;;;23.80;24.80;;;;;;2261159;61;20908;-62
2023/04/02 00:38:54;0.00;0.00;0.62;0.00;0.00;0.62;1.30;0.70;;;23.80;24.80;;;;;;2263526;61;20764;-63
2023/04/02 00:41:45;0.00;0.00;0.62;0.00;0.00;0.62;1.37;0.80;;;23.80;24.80;;;;;;2263762;61;20364;-67
2023/04/02 00:44:33;0.00;0.00;0.62;0.00;0.00;0.62;1.80;0.97;;;23.80;24.80;;;;;;2263422;61;20365;-59
2023/04/02 00:47:21;0.00;0.00;0.62;0.00;0.00;0.62;1.33;0.80;;;23.70;24.80;;;;;;2264008;61;20395;-60
2023/04/02 00:50:23;0.00;0.00;0.62;0.00;0.00;0.62;1.30;0.80;;;23.70;24.70;;;;;;2263792;61;20784;-58
2023/04/02 00:53:16;0.00;0.00;0.62;0.00;0.00;0.62;1.33;0.80;;;23.80;24.80;;;;;;2263419;61;20359;-64
2023/04/02 00:56:03;0.00;0.00;0.62;0.00;0.00;0.62;1.40;0.80;;;23.70;24.80;;;;;;2260639;61;20352;-64
2023/04/02 00:58:53;0.00;0.00;0.62;0.00;0.00;0.62;1.30;0.70;;;23.70;24.70;;;;;;2264334;61;20924;-60
2023/04/02 01:01:41;0.00;0.00;0.62;0.00;0.00;0.62;1.40;0.80;;;23.70;24.70;;;;;;2263600;61;20980;-62
2023/04/02 01:04:33;0.00;0.00;0.62;0.00;0.00;0.62;3.00;0.90;;;23.70;24.70;;;;;;2263439;61;20395;-63
2023/04/02 01:07:21;0.00;0.00;0.62;0.00;0.00;0.62;1.40;0.80;;;23.70;24.70;;;;;;2260193;61;20427;-63
2023/04/02 01:10:35;0.00;0.00;0.62;0.00;0.00;0.62;1.57;0.80;;;23.70;24.70;;;;;;2259053;61;20854;-62
2023/04/02 01:13:29;0.00;0.00;0.62;0.00;0.00;0.62;1.37;0.70;;;23.70;24.70;;;;;;2264171;61;20453;-63
2023/04/02 01:16:26;0.00;0.00;0.62;0.00;0.00;0.62;1.40;0.70;;;23.60;24.60;;;;;;2263724;61;20379;-62
2023/04/02 01:19:43;0.00;0.00;0.62;0.00;0.00;0.62;1.30;0.80;;;23.70;24.70;;;;;;2260362;61;20419;-66
2023/04/02 01:22:37;0.00;0.00;0.62;0.00;0.00;0.62;1.57;0.90;;;23.60;24.70;;;;;;2260365;61;20813;-67
2023/04/02 01:25:29;0.00;0.00;0.62;0.00;0.00;0.62;1.40;0.70;;;23.60;24.60;;;;;;2263588;61;20360;-60
2023/04/02 01:28:19;0.00;0.00;0.62;0.00;0.00;0.62;1.40;0.80;;;23.60;24.60;;;;;;2260994;61;20803;-61
2023/04/02 01:31:05;0.00;0.00;0.62;0.00;0.00;0.62;1.80;0.90;;;23.60;24.60;;;;;;2260456;61;20418;-63
2023/04/02 01:33:50;0.00;0.00;0.62;0.00;0.00;0.62;1.30;0.60;;;23.60;24.60;;;;;;2263729;61;20372;-63
2023/04/02 01:36:46;0.00;0.00;0.62;0.00;0.00;0.62;1.50;0.80;;;23.60;24.60;;;;;;2260160;61;20419;-61
2023/04/02 01:39:46;0.00;0.00;0.62;0.00;0.00;0.62;1.60;0.80;;;23.60;24.70;;;;;;2263439;61;20995;-62
2023/04/02 01:42:37;0.00;0.00;0.62;0.00;0.00;0.62;1.53;0.90;;;23.60;24.60;;;;;;2264121;61;20801;-62
2023/04/02 01:45:23;0.00;0.00;0.62;0.00;0.00;0.62;1.30;0.70;;;23.60;24.60;;;;;;2260402;61;20919;-62
2023/04/02 01:48:15;0.00;0.00;0.62;0.00;0.00;0.62;1.40;0.70;;;23.60;24.60;;;;;;2263681;61;20897;-61
2023/04/02 01:51:05;0.00;0.00;0.62;0.00;0.00;0.62;1.40;0.80;;;23.50;24.60;;;;;;2259960;61;20372;-63
2023/04/02 01:53:50;0.00;0.00;0.62;0.00;0.00;0.62;1.50;0.70;;;23.60;25.20;;;;;;2260759;61;20456;-62
2023/04/02 01:56:36;0.00;0.00;0.62;0.00;0.00;0.62;1.53;0.80;;;23.50;24.60;;;;;;2263891;61;20399;-65
2023/04/02 01:59:22;0.00;0.00;0.62;0.00;0.00;0.62;1.30;0.70;;;23.50;24.50;;;;;;2259879;61;20363;-63
2023/04/02 02:02:13;0.00;0.00;0.62;0.00;0.00;0.62;1.73;0.80;;;23.50;24.50;;;;;;2260473;61;20360;-61
2023/04/02 02:05:02;0.00;0.00;0.62;0.00;0.00;0.62;1.97;0.80;;;23.50;24.50;;;;;;2260727;61;20406;-60
2023/04/02 02:07:48;0.00;0.00;0.62;0.00;0.00;0.62;1.80;0.73;;;23.50;24.50;;;;;;2260191;61;20431;-62
2023/04/02 02:10:38;0.00;0.00;0.62;0.00;0.00;0.62;1.50;0.80;;;23.50;24.50;;;;;;2262960;61;20829;-66
2023/04/02 02:13:24;0.00;0.00;0.62;0.00;0.00;0.62;1.37;0.80;;;23.50;24.50;;;;;;2263517;61;20364;-65
2023/04/02 02:16:13;0.00;0.00;0.62;0.00;0.00;0.62;1.50;0.90;;;23.50;24.50;;;;;;2260629;61;20375;-67
2023/04/02 02:19:01;0.00;0.00;0.62;0.00;0.00;0.62;1.93;0.80;;;23.50;24.50;;;;;;2263580;61;20826;-60
2023/04/02 02:21:51;0.00;0.00;0.62;0.00;0.00;0.62;1.80;0.80;;;23.50;24.50;;;;;;2263525;61;20904;-65
2023/04/02 02:24:36;0.00;0.00;0.62;0.00;0.00;0.62;1.40;0.80;;;23.50;24.50;;;;;;2264258;61;20363;-67
2023/04/02 02:27:51;0.00;0.00;0.62;0.00;0.00;0.62;1.60;0.70;;;23.50;24.50;;;;;;2264647;61;20386;-63
2023/04/02 02:30:42;0.00;0.00;0.62;0.00;0.00;0.62;1.30;0.70;;;23.50;24.50;;;;;;2261018;61;20396;-61
2023/04/02 02:33:32;0.00;0.00;0.62;0.00;0.00;0.62;1.30;0.70;;;23.50;24.50;;;;;;2261010;61;20452;-64
2023/04/02 02:36:24;0.00;0.00;0.62;0.00;0.00;0.62;1.20;0.60;;;23.40;24.40;;;;;;2260904;61;20379;-62
2023/04/02 02:39:16;0.00;0.00;0.62;0.00;0.00;0.62;1.30;0.70;;;23.40;24.40;;;;;;2260716;61;20852;-62
2023/04/02 02:42:14;0.00;0.00;0.62;0.00;0.00;0.62;1.80;0.77;;;23.40;24.40;;;;;;2261542;61;20459;-71
2023/04/02 02:45:05;0.00;0.00;0.62;0.00;0.00;0.62;1.30;0.73;;;23.40;24.40;;;;;;2260933;61;20403;-62
2023/04/02 02:47:52;0.00;0.00;0.62;0.00;0.00;0.62;1.40;0.80;;;23.40;24.40;;;;;;2261055;61;20396;-61
2023/04/02 02:50:38;0.00;0.00;0.62;0.00;0.00;0.62;2.73;0.93;;;23.40;24.40;;;;;;2260286;61;20486;-62
2023/04/02 02:53:25;0.00;0.00;0.62;0.00;0.00;0.62;1.90;0.90;;;23.40;24.40;;;;;;2260857;61;20372;-64
2023/04/02 02:56:14;0.00;0.00;0.62;0.00;0.00;0.62;2.67;0.87;;;23.40;24.40;;;;;;2261243;61;20415;-59
2023/04/02 02:59:04;0.00;0.00;0.62;0.00;0.00;0.62;1.63;0.80;;;23.40;24.40;;;;;;2260611;61;20372;-60
2023/04/02 03:01:54;0.00;0.00;0.62;0.00;0.00;0.62;1.43;0.80;;;23.40;24.40;;;;;;2261020;61;20430;-62
2023/04/02 03:04:39;0.00;0.00;0.62;0.00;0.00;0.62;1.67;0.70;;;23.40;24.30;;;;;;2261350;61;20442;-63
2023/04/02 03:07:32;0.00;0.00;0.62;0.00;0.00;0.62;1.30;0.67;;;23.40;24.30;;;;;;2261299;61;20418;-62
2023/04/02 03:10:23;0.00;0.00;0.62;0.00;0.00;0.62;1.30;0.70;;;23.30;24.30;;;;;;2260539;61;20367;-61
2023/04/02 03:13:20;0.00;0.00;0.62;0.00;0.00;0.62;1.40;0.70;;;23.30;24.30;;;;;;2260783;61;20800;-62
2023/04/02 03:16:15;0.00;0.00;0.62;0.00;0.00;0.62;2.00;0.70;;;23.30;24.30;;;;;;2260773;61;20783;-62
2023/04/02 03:19:07;0.00;0.00;0.62;0.00;0.00;0.62;1.30;0.70;;;23.30;24.30;;;;;;2264355;61;20396;-59
2023/04/02 03:22:02;0.00;0.00;0.62;0.00;0.00;0.62;1.37;0.77;;;23.30;24.30;;;;;;2261048;61;20382;-66
2023/04/02 03:24:58;0.00;0.00;0.62;0.00;0.00;0.62;1.50;0.70;;;23.30;24.20;;;;;;2260845;61;20363;-60
2023/04/02 03:27:48;0.00;0.00;0.62;0.00;0.00;0.62;1.33;0.70;;;23.30;24.30;;;;;;2260794;61;20525;-63
2023/04/02 03:30:41;0.00;0.00;0.62;0.00;0.00;0.62;1.80;0.80;;;23.30;24.30;;;;;;2260122;61;20394;-62
2023/04/02 03:33:33;0.00;0.00;0.62;0.00;0.00;0.62;1.50;0.80;;;23.30;24.20;;;;;;2261233;61;20388;-61
2023/04/02 03:36:27;0.00;0.00;0.62;0.00;0.00;0.62;1.37;0.67;;;23.30;24.20;;;;;;2257754;61;20446;-62
2023/04/02 03:39:17;0.00;0.00;0.62;0.00;0.00;0.62;1.20;0.70;;;23.30;24.30;;;;;;2260413;61;20384;-60
2023/04/02 03:42:12;0.00;0.00;0.62;0.00;0.00;0.62;1.37;0.70;;;23.20;24.20;;;;;;2260688;61;20931;-62
2023/04/02 03:45:06;0.00;0.00;0.62;0.00;0.00;0.62;1.30;0.63;;;23.20;24.20;;;;;;2261147;61;20411;-63
2023/04/02 03:48:01;0.00;0.00;0.62;0.00;0.00;0.62;1.30;0.70;;;23.20;24.20;;;;;;2261219;61;20396;-62
2023/04/02 03:50:55;0.00;0.00;0.62;0.00;0.00;0.62;1.50;0.70;;;23.20;24.20;;;;;;2260302;61;20919;-62
2023/04/02 03:53:42;0.00;0.00;0.62;0.00;0.00;0.62;1.30;0.70;;;23.20;24.20;;;;;;2266390;61;20759;-62
2023/04/02 03:56:30;0.00;0.00;0.62;0.00;0.00;0.62;1.60;0.70;;;23.20;24.20;;;;;;2261277;61;20458;-62
2023/04/02 03:59:28;0.00;0.00;0.62;0.00;0.00;0.62;1.50;0.80;;;23.20;24.20;;;;;;2260914;61;20448;-63
2023/04/02 04:02:37;0.00;0.00;0.62;0.00;0.00;0.62;1.50;0.87;;;23.20;24.20;;;;;;2260943;61;20814;-63
2023/04/02 04:05:28;0.00;0.00;0.62;0.00;0.00;0.62;1.40;0.60;;;23.20;24.20;;;;;;2263640;61;20410;-61
2023/04/02 04:08:20;0.00;0.00;0.62;0.00;0.00;0.62;1.20;0.70;;;23.20;24.20;;;;;;2260931;61;20900;-63
2023/04/02 04:11:12;0.00;0.00;0.62;0.00;0.00;0.62;1.20;0.60;;;23.20;24.10;;;;;;2263804;61;20363;-64
2023/04/02 04:14:05;0.00;0.00;0.62;0.00;0.00;0.62;1.23;0.70;;;23.10;24.00;;;;;;2261239;61;20510;-60
2023/04/02 04:16:58;0.00;0.00;0.62;0.00;0.00;0.62;1.37;0.60;;;23.10;24.00;;;;;;2264174;61;20380;-63
2023/04/02 04:19:47;0.00;0.00;0.62;0.00;0.00;0.62;1.30;0.70;;;23.10;24.10;;;;;;2263418;61;20356;-62
2023/04/02 04:22:36;0.00;0.00;0.62;0.00;0.00;0.62;1.30;0.67;;;23.10;24.10;;;;;;2260697;61;20376;-62
2023/04/02 04:25:38;0.00;0.00;0.62;0.00;0.00;0.62;1.80;0.80;;;23.10;24.00;;;;;;2261209;61;20435;-62
2023/04/02 04:28:40;0.00;0.00;0.62;0.00;0.00;0.62;1.30;0.80;;;23.10;24.00;;;;;;2263916;61;20445;-59
2023/04/02 04:31:37;0.00;0.00;0.62;0.00;0.00;0.62;1.43;0.70;;;23.10;24.00;;;;;;2263975;61;20359;-60
2023/04/02 04:34:28;0.00;0.00;0.62;0.00;0.00;0.62;1.40;0.80;;;23.10;24.00;;;;;;2260158;61;20454;-62
2023/04/02 04:37:24;0.00;0.00;0.62;0.00;0.00;0.62;1.30;0.63;;;23.10;24.00;;;;;;2260625;61;20442;-63
2023/04/02 04:40:20;0.00;0.00;0.62;0.00;0.00;0.62;1.20;0.60;;;23.10;24.00;;;;;;2260614;61;20959;-61
2023/04/02 04:43:15;0.00;0.00;0.62;0.00;0.00;0.62;1.20;0.60;;;23.10;24.00;;;;;;2260590;61;20513;-60
2023/04/02 04:46:07;0.00;0.00;0.62;0.00;0.00;0.62;1.53;0.77;;;23.10;24.00;;;;;;2265575;61;20360;-61
2023/04/02 04:48:56;0.00;0.00;0.62;0.00;0.00;0.62;1.30;0.60;;;23.10;24.00;;;;;;2260207;61;20364;-62
2023/04/02 04:51:49;0.00;0.00;0.62;0.00;0.00;0.62;1.77;1.13;;;23.00;23.90;;;;;;2260993;61;20460;-62
2023/04/02 04:54:38;0.00;0.00;0.62;0.00;0.00;0.62;1.30;0.60;;;23.00;23.90;;;;;;2260821;61;20368;-63
2023/04/02 04:57:34;0.00;0.00;0.62;0.00;0.00;0.62;1.20;0.60;;;23.00;23.90;;;;;;2260421;61;20380;-63
2023/04/02 05:00:27;0.00;0.00;0.62;0.00;0.00;0.62;1.43;0.70;;;23.00;23.90;;;;;;2257574;61;20937;-61
2023/04/02 05:03:21;0.00;0.00;0.62;0.00;0.00;0.62;1.30;0.70;;;23.00;23.90;;;;;;2260801;61;20361;-65
2023/04/02 05:06:12;0.00;0.00;0.62;0.00;0.00;0.62;1.87;1.07;;;23.00;23.90;;;;;;2260922;61;20429;-62
2023/04/02 05:09:06;0.00;0.00;0.62;0.00;0.00;0.62;1.30;0.70;;;23.00;23.90;;;;;;2260209;61;20352;-65
2023/04/02 05:12:05;0.00;0.00;0.62;0.00;0.00;0.62;1.40;0.70;;;23.00;23.90;;;;;;2260465;61;20442;-61
2023/04/02 05:14:57;0.00;0.00;0.62;0.00;0.00;0.62;1.90;0.80;;;23.00;23.90;;;;;;2260425;61;20363;-62
2023/04/02 05:17:51;0.00;0.00;0.62;0.00;0.00;0.62;1.40;0.70;;;23.00;23.90;;;;;;2261003;61;20970;-62
2023/04/02 05:20:46;0.00;0.00;0.62;0.00;0.00;0.62;1.30;0.60;;;23.00;23.90;;;;;;2260757;61;20437;-60
2023/04/02 05:23:39;0.00;0.00;0.62;0.00;0.00;0.62;1.30;0.60;;;22.90;23.80;;;;;;2260347;61;20387;-62
2023/04/02 05:26:29;0.00;0.00;0.62;0.00;0.00;0.62;1.37;0.80;;;23.00;23.90;;;;;;2260262;61;20434;-62
2023/04/02 05:29:23;0.00;0.00;0.62;0.00;0.00;0.62;1.70;0.87;;;23.00;23.90;;;;;;2260226;61;20410;-63
2023/04/02 05:32:17;0.00;0.00;0.62;0.00;0.00;0.62;1.20;0.63;;;22.90;23.80;;;;;;2261018;61;20384;-61
2023/04/02 05:35:05;0.00;0.00;0.62;0.00;0.00;0.62;1.30;0.70;;;22.90;23.80;;;;;;2260302;61;20816;-64
2023/04/02 05:37:52;0.00;0.00;0.62;0.00;0.00;0.62;1.73;0.93;;;22.90;23.80;;;;;;2260588;61;20442;-66
2023/04/02 05:40:43;0.00;0.00;0.62;0.00;0.00;0.62;1.60;0.70;;;22.90;23.80;;;;;;2263353;61;20842;-61
2023/04/02 05:43:32;0.00;0.00;0.62;0.00;0.00;0.62;1.73;0.70;;;22.90;23.80;;;;;;2264006;61;20422;-62
2023/04/02 05:46:23;0.00;0.00;0.62;0.00;0.00;0.62;1.27;0.67;;;22.90;23.80;;;;;;2260876;61;20489;-60
2023/04/02 05:49:21;0.00;0.00;0.62;0.00;0.00;0.62;1.20;0.60;;;22.90;23.80;;;;;;2265439;61;20368;-63
2023/04/02 05:52:11;0.00;0.00;0.62;0.00;0.00;0.62;1.40;0.80;;;22.90;23.80;;;;;;2260418;61;20387;-59
2023/04/02 05:55:03;0.00;0.00;0.62;0.00;0.00;0.62;1.30;0.70;;;22.90;23.80;;;;;;2263913;61;20802;-62
2023/04/02 05:57:52;0.00;0.00;0.62;0.00;0.00;0.62;1.40;0.70;;;22.90;23.80;;;;;;2264710;61;20376;-61
2023/04/02 06:00:53;0.00;0.00;0.62;0.00;0.00;0.62;1.40;0.70;;;22.90;23.80;;;;;;2261080;61;20414;-61
2023/04/02 06:03:49;0.00;0.00;0.62;0.00;0.00;0.62;1.27;0.60;;;22.90;23.80;;;;;;2260897;61;20911;-62
2023/04/02 06:06:56;0.00;0.00;0.62;0.00;0.00;0.62;1.20;0.60;;;22.90;23.80;;;;;;2260602;61;20442;-62
2023/04/02 06:09:47;0.00;0.00;0.62;0.00;0.00;0.62;1.20;0.67;;;22.90;23.80;;;;;;2263880;61;20990;-63
2023/04/02 06:12:40;0.00;0.00;0.62;0.00;0.00;0.62;1.70;0.60;;;22.80;24.30;;;;;;2264362;61;20448;-65
2023/04/02 06:15:25;0.00;0.00;0.62;0.00;0.00;0.62;1.50;0.70;;;22.80;23.70;;;;;;2261124;61;20367;-61
2023/04/02 06:18:18;0.00;0.00;0.62;0.00;0.00;0.62;1.83;0.70;;;22.80;23.70;;;;;;2260760;61;20472;-66
2023/04/02 06:21:05;0.00;0.00;0.62;0.00;0.00;0.62;1.20;0.60;;;22.80;23.70;;;;;;2263738;61;20399;-63
2023/04/02 06:23:55;0.00;0.00;0.62;0.00;0.00;0.62;1.47;0.80;;;22.80;23.70;;;;;;2264753;61;20399;-60
2023/04/02 06:26:45;0.00;0.00;0.62;0.00;0.00;0.62;1.27;0.70;;;22.80;23.70;;;;;;2263700;61;20411;-60
2023/04/02 06:29:38;0.00;0.00;0.62;0.00;0.00;0.62;1.27;0.67;;;22.80;23.70;;;;;;2264242;61;20386;-62
2023/04/02 06:32:26;0.00;0.00;0.62;0.00;0.00;0.62;1.30;0.70;;;22.80;23.70;;;;;;2260765;61;20399;-62
2023/04/02 06:35:12;0.00;0.00;0.62;0.00;0.00;0.62;1.30;0.70;;;22.80;23.70;;;;;;2264414;61;20383;-62
2023/04/02 06:38:02;0.00;0.00;0.62;0.00;0.00;0.62;1.67;0.70;;;22.80;23.70;;;;;;2261408;61;20463;-62
2023/04/02 06:40:55;0.00;0.00;0.62;0.00;0.00;0.62;1.40;0.73;;;22.80;23.70;;;;;;2263295;61;20360;-61
2023/04/02 06:43:53;0.00;0.00;0.62;0.00;0.00;0.62;1.20;0.70;;;22.80;23.70;;;;;;2263737;61;20888;-63
2023/04/02 06:47:11;0.00;0.00;0.62;0.00;0.00;0.62;1.73;0.80;;;22.80;23.70;;;;;;2261750;61;21044;-62
2023/04/02 06:50:07;0.00;0.00;0.62;0.00;0.00;0.62;1.20;0.60;;;22.80;23.70;;;;;;2264249;61;20386;-64
2023/04/02 06:52:56;0.00;0.00;0.62;0.00;0.00;0.62;1.20;0.60;;;22.80;23.70;;;;;;2258727;61;20410;-62
2023/04/02 06:55:49;0.00;0.00;0.62;0.00;0.00;0.62;1.50;0.63;;;22.80;23.60;;;;;;2261068;61;20368;-62
2023/04/02 06:58:40;0.00;0.00;0.62;0.00;0.00;0.62;1.50;0.70;;;22.80;23.60;;;;;;2260774;61;20403;-62
2023/04/02 07:01:31;0.00;0.00;0.62;0.00;0.00;0.62;1.30;0.60;;;22.80;23.60;;;;;;2264111;61;20403;-63
2023/04/02 07:04:18;0.00;0.00;0.62;0.00;0.00;0.62;1.30;0.70;;;22.70;23.50;;;;;;2264165;61;20407;-61
2023/04/02 07:07:04;0.00;0.00;0.62;0.00;0.00;0.62;1.37;0.60;;;22.70;23.50;;;;;;2262029;61;20443;-65
2023/04/02 07:09:55;0.00;0.00;0.62;0.00;0.00;0.62;1.40;0.77;;;22.70;23.50;;;;;;2258975;61;20372;-62
2023/04/02 07:12:41;0.00;0.00;0.62;0.00;0.00;0.62;1.40;0.70;;;22.70;23.50;;;;;;2259881;61;20369;-60
2023/04/02 07:15:30;0.00;0.00;0.62;0.00;0.00;0.62;1.40;0.70;;;22.70;23.50;;;;;;2257171;61;20392;-65
2023/04/02 07:18:25;0.00;0.00;0.62;0.00;0.00;0.62;1.30;0.80;;;22.70;23.50;;;;;;2262225;61;20369;-63
2023/04/02 07:21:10;0.00;0.00;0.62;0.00;0.00;0.62;1.40;0.70;;;22.70;23.50;;;;;;2259216;61;20384;-61
2023/04/02 07:23:56;0.00;0.00;0.62;0.00;0.00;0.62;1.97;0.80;;;22.70;23.50;;;;;;2259466;61;20419;-62
2023/04/02 07:26:40;0.00;0.00;0.62;0.00;0.00;0.62;1.30;0.70;;;22.70;23.50;;;;;;2260415;61;20428;-62
2023/04/02 07:29:25;0.00;0.00;0.62;0.00;0.00;0.62;1.30;0.60;;;22.70;23.50;;;;;;2259804;61;20365;-62
2023/04/02 07:32:12;0.00;0.00;0.62;0.00;0.00;0.62;1.27;0.70;;;22.70;23.50;;;;;;2259667;61;20416;-62
2023/04/02 07:34:57;0.00;0.00;0.62;0.00;0.00;0.62;1.40;0.70;;;22.70;23.50;;;;;;2260056;61;20900;-59
2023/04/02 07:37:42;0.00;0.00;0.62;0.00;0.00;0.62;1.40;0.80;;;22.70;23.50;;;;;;2260487;61;20384;-62
2023/04/02 07:40:26;0.00;0.00;0.62;0.00;0.00;0.62;1.70;0.90;;;22.70;23.50;;;;;;2259594;61;20451;-63
2023/04/02 07:43:11;0.00;0.00;0.62;0.00;0.00;0.62;2.03;0.80;;;22.70;23.50;;;;;;2259757;61;20361;-59
2023/04/02 07:45:56;0.00;0.00;0.62;0.00;0.00;0.62;1.30;0.70;;;22.70;23.50;;;;;;2260349;61;20435;-64
2023/04/02 07:48:43;0.00;0.00;0.62;0.00;0.00;0.62;1.40;0.70;;;22.70;23.50;;;;;;2260490;61;20411;-63
2023/04/02 07:51:28;0.00;0.00;0.62;0.00;0.00;0.62;1.50;0.80;;;22.70;23.40;;;;;;2262225;61;20928;-58
2023/04/02 07:54:13;0.00;0.00;0.62;0.00;0.00;0.62;1.50;0.70;;;22.70;23.50;;;;;;2259719;61;20436;-62
2023/04/02 07:56:58;0.00;0.00;0.62;0.00;0.00;0.62;1.60;0.80;;;22.70;23.40;;;;;;2259992;61;20385;-62
2023/04/02 07:59:42;0.00;0.00;0.62;0.00;0.00;0.62;1.50;0.80;;;22.70;23.40;;;;;;2259991;61;20401;-61
2023/04/02 08:02:27;0.00;0.00;0.62;0.00;0.00;0.62;1.43;0.70;;;22.70;23.50;;;;;;2259915;61;20404;-60
2023/04/02 08:05:14;0.00;0.00;0.62;0.00;0.00;0.62;1.40;0.70;;;22.60;23.40;;;;;;2259982;61;20542;-59
2023/04/02 08:07:59;0.00;0.00;0.62;0.00;0.00;0.62;1.60;0.70;;;22.60;23.40;;;;;;2260269;61;20392;-62
2023/04/02 08:10:44;0.00;0.00;0.62;0.00;0.00;0.62;1.53;0.87;;;22.60;23.40;;;;;;2259677;61;20791;-65
2023/04/02 08:13:30;0.00;0.00;0.62;0.00;0.00;0.62;1.40;0.90;;;22.60;23.40;;;;;;2260197;61;20365;-68
2023/04/02 08:16:15;0.00;0.00;0.62;0.00;0.00;0.62;1.20;0.60;;;22.60;23.40;;;;;;2259427;61;20422;-61
2023/04/02 08:19:00;0.00;0.00;0.62;0.00;0.00;0.62;1.23;0.60;;;22.60;23.90;;;;;;2259957;61;20773;-62
2023/04/02 08:21:50;0.00;0.00;0.62;0.00;0.00;0.62;1.40;0.70;;;22.60;23.40;;;;;;2264426;61;20355;-60
2023/04/02 08:24:34;0.00;0.00;0.62;0.00;0.00;0.62;2.57;1.00;;;22.60;23.40;;;;;;2263668;61;20422;-60
2023/04/02 08:27:19;0.00;0.00;0.62;0.00;0.00;0.62;1.30;0.70;;;22.60;23.30;;;;;;2263913;61;20971;-63
2023/04/02 08:30:07;0.00;0.00;0.62;0.00;0.00;0.62;1.27;0.60;;;22.60;23.40;;;;;;2263835;61;20792;-65
2023/04/02 08:32:52;0.00;0.00;0.62;0.00;0.00;0.62;1.40;0.77;;;22.60;23.30;;;;;;2263944;61;20360;-60
2023/04/02 08:35:36;0.00;0.00;0.62;0.00;0.00;0.62;1.40;0.70;;;22.60;23.30;;;;;;2263928;61;20359;-67
2023/04/02 08:38:22;0.00;0.00;0.62;0.00;0.00;0.62;1.63;0.93;;;22.60;23.30;;;;;;2263616;61;20360;-61
2023/04/02 08:41:15;0.00;0.00;0.62;0.00;0.00;0.62;1.43;0.70;;;22.60;23.30;;;;;;2264039;61;20367;-64
2023/04/02 08:44:28;0.00;0.00;0.62;0.00;0.00;0.62;1.30;0.60;;;22.60;23.30;;;;;;2264134;61;20784;-61
2023/04/02 08:47:15;0.00;0.00;0.62;0.00;0.00;0.62;1.60;0.80;;;22.60;23.30;;;;;;2263809;61;20439;-61
2023/04/02 08:50:03;0.00;0.00;0.62;0.00;0.00;0.62;1.30;0.70;;;22.60;23.30;;;;;;2263371;61;20430;-59
2023/04/02 08:52:48;0.00;0.00;0.62;0.00;0.00;0.62;1.50;0.73;;;22.60;23.30;;;;;;2263728;61;20418;-63
2023/04/02 08:55:41;0.00;0.00;0.62;0.00;0.00;0.62;1.50;0.90;;;22.60;23.30;;;;;;2264147;61;20946;-61
2023/04/02 08:58:38;0.00;0.00;0.62;0.00;0.00;0.62;1.63;0.80;;;22.60;23.30;;;;;;2264167;61;20917;-62
2023/04/02 09:01:36;0.00;0.00;0.62;0.00;0.00;0.62;1.60;0.70;;;22.60;23.30;;;;;;2263887;61;20364;-62
2023/04/02 09:04:23;0.00;0.00;0.62;0.00;0.00;0.62;1.80;0.80;;;22.60;23.30;;;;;;2263613;61;20368;-62
2023/04/02 09:07:13;0.00;0.00;0.62;0.00;0.00;0.62;1.90;0.97;;;22.60;23.30;;;;;;2264226;61;20470;-59
2023/04/02 09:09:58;0.00;0.00;0.62;0.00;0.00;0.62;1.83;0.87;;;22.60;23.30;;;;;;2263834;61;20360;-61
2023/04/02 09:12:50;0.00;0.00;0.62;0.00;0.00;0.62;1.30;0.70;;;22.60;23.30;;;;;;2263806;61;20367;-63
2023/04/02 09:15:35;0.00;0.00;0.62;0.00;0.00;0.62;1.93;1.00;;;22.60;23.30;;;;;;2263702;61;20400;-62
2023/04/02 09:18:20;0.00;0.00;0.62;0.00;0.00;0.62;1.40;0.80;;;22.60;23.30;;;;;;2263646;61;20360;-64
2023/04/02 09:21:30;0.00;0.00;0.62;0.00;0.00;0.62;1.57;1.00;;;22.60;23.30;;;;;;2263742;61;20372;-60
2023/04/02 09:24:15;0.00;0.00;0.62;0.00;0.00;0.62;2.57;1.10;;;22.60;23.30;;;;;;2263652;61;20379;-62
2023/04/02 09:27:00;0.00;0.00;0.62;0.00;0.00;0.62;1.50;0.87;;;22.60;23.30;;;;;;2263818;61;20384;-62
2023/04/02 09:29:49;0.00;0.00;0.62;0.00;0.00;0.62;1.63;1.03;;;22.60;23.30;;;;;;2263343;61;20360;-57
2023/04/02 09:32:48;0.00;0.00;0.62;0.00;0.00;0.62;1.60;1.07;;;22.60;23.30;;;;;;2264133;61;20431;-67
2023/04/02 09:35:35;0.00;0.00;0.62;0.00;0.00;0.62;2.30;1.40;;;22.60;23.30;;;;;;2264019;61;20472;-63
2023/04/02 09:38:26;0.00;0.00;0.62;0.00;0.00;0.62;3.23;1.30;;;22.60;23.20;;;;;;2263819;61;20357;-62
2023/04/02 09:41:19;0.00;0.00;0.62;0.00;0.00;0.62;2.00;1.47;;;22.60;23.30;;;;;;2260275;61;20392;-62
2023/04/02 09:44:18;0.00;0.00;0.62;0.00;0.00;0.62;2.60;1.37;;;22.60;23.20;;;;;;2264153;61;20861;-62
2023/04/02 09:47:22;0.00;0.00;0.62;0.00;0.00;0.62;1.97;1.33;;;22.60;23.20;;;;;;2264039;61;20443;-61
2023/04/02 09:50:30;0.00;0.00;0.62;0.00;0.00;0.62;1.60;1.00;;;22.60;23.20;;;;;;2263416;61;20425;-63
2023/04/02 09:53:29;0.00;0.00;0.62;0.00;0.00;0.62;1.53;0.90;;;22.50;23.20;;;;;;2260130;61;20402;-63
2023/04/02 09:56:20;0.00;0.00;0.62;0.00;0.00;0.62;2.00;1.10;;;22.60;23.20;;;;;;2263957;61;20380;-62
2023/04/02 09:59:14;0.00;0.00;0.62;0.00;0.00;0.62;1.60;1.03;;;22.60;23.20;;;;;;2260504;61;20824;-63
2023/04/02 10:02:22;0.00;0.00;0.62;0.00;0.00;0.62;2.00;1.00;;;22.60;23.30;;;;;;2264054;61;20421;-62
2023/04/02 10:05:18;0.00;0.00;0.62;0.00;0.00;0.62;1.80;1.40;;;22.50;23.20;;;;;;2263926;61;20920;-65
2023/04/02 10:08:17;0.00;0.00;0.62;0.00;0.00;0.62;1.70;0.97;;;22.60;23.20;;;;;;2263333;61;20448;-62
2023/04/02 10:11:06;0.00;0.00;0.62;0.00;0.00;0.62;1.93;1.20;;;22.60;23.30;;;;;;2263073;61;20355;-58
2023/04/02 10:13:57;0.00;0.00;0.62;0.00;0.00;0.62;2.33;1.40;;;22.60;23.20;;;;;;2263981;61;20407;-62
2023/04/02 10:16:47;0.00;0.00;0.62;0.00;0.00;0.62;2.00;1.40;;;22.60;23.20;;;;;;2263811;61;20384;-62
2023/04/02 10:19:36;0.00;0.00;0.62;0.00;0.00;0.62;2.20;1.53;;;22.60;23.30;;;;;;2263378;61;20935;-62
2023/04/02 10:22:22;0.00;0.00;0.62;0.00;0.00;0.62;2.50;1.37;;;22.60;23.20;;;;;;2263456;61;20364;-62
2023/04/02 10:25:13;0.00;0.00;0.62;0.00;0.00;0.62;2.63;1.40;;;22.60;23.20;;;;;;2263596;61;20363;-65
2023/04/02 10:28:08;0.00;0.00;0.62;0.00;0.00;0.62;1.93;1.40;;;22.60;23.20;;;;;;2264092;61;20408;-62
2023/04/02 10:30:59;0.00;0.00;0.62;0.00;0.00;0.62;2.47;1.70;;;22.60;23.20;;;;;;2263141;61;20557;-59
2023/04/02 10:33:49;0.00;0.00;0.62;0.00;0.00;0.62;2.63;1.80;;;22.60;23.20;;;;;;2260467;61;20422;-62
2023/04/02 10:36:49;0.00;0.00;0.62;0.00;0.00;0.62;7.13;1.83;;;22.60;23.20;;;;;;2260243;61;20433;-62
2023/04/02 10:39:39;0.00;0.00;0.62;0.00;0.00;0.62;2.40;1.73;;;22.60;23.20;;;;;;2263632;61;20434;-61
2023/04/02 10:42:33;0.00;0.00;0.62;0.00;0.00;0.62;2.23;1.60;;;22.60;23.20;;;;;;2264143;61;20400;-65
2023/04/02 10:45:30;0.00;0.00;0.62;0.00;0.00;0.62;3.13;1.90;;;22.60;23.20;;;;;;2263830;61;20356;-64
2023/04/02 10:48:24;0.00;0.00;0.62;0.00;0.00;0.62;2.73;1.80;;;22.60;23.20;;;;;;2264088;61;20426;-61
2023/04/02 10:51:24;0.00;0.00;0.62;0.00;0.00;0.62;2.10;1.40;;;22.60;23.20;;;;;;2260425;61;20368;-63
2023/04/02 10:54:29;0.00;0.00;0.62;0.00;0.00;0.62;2.60;1.67;;;22.60;23.20;;;;;;2264742;61;20782;-60
2023/04/02 10:57:33;0.00;0.00;0.62;0.00;0.00;0.62;2.20;1.50;;;22.60;23.20;;;;;;2264518;61;20462;-59
2023/04/02 11:00:24;0.00;0.00;0.62;0.00;0.00;0.62;1.93;1.50;;;22.60;23.20;;;;;;2263573;61;20415;-62
2023/04/02 11:03:15;0.00;0.00;0.62;0.00;0.00;0.62;2.30;1.50;;;22.60;23.20;;;;;;2264151;61;20380;-62
2023/04/02 11:06:11;0.00;0.00;0.62;0.00;0.00;0.62;2.40;1.57;;;22.60;23.20;;;;;;2263732;61;20807;-62
2023/04/02 11:09:00;0.00;0.00;0.62;0.00;0.00;0.62;2.77;1.80;;;22.60;23.20;;;;;;2264414;61;20402;-67
2023/04/02 11:11:50;0.00;0.00;0.62;0.00;0.00;0.62;2.70;1.90;;;22.60;23.20;;;;;;2264605;61;20403;-60
2023/04/02 11:14:35;0.00;0.00;0.62;0.00;0.00;0.62;3.20;1.70;;;22.60;23.20;;;;;;2264177;61;20460;-63
2023/04/02 11:17:22;0.00;0.00;0.62;0.00;0.00;0.62;3.23;1.77;;;22.60;23.20;;;;;;2264218;61;20408;-59